EGOW

RAF Woodvale Airport

Southport, United Kingdom
METAR EGOW 221550Z 25011KT 9999 FEW028 13/09 Q1007 BLU
Observed Flight Rules
Apr-22 @ 15:50 UTC (2 hours ago) Visual Flight Rules
Wind Visibility Clouds
250° at 11 knots 10,000+ meters
  • Few at 2,800' AGL
Temperatures Readings
Current 13°C / 55°F
Dewpoint 9°C / 48°F
Humidity 77%
Altimeter 29.73" Hg
Pressure 1007 hPa
Elevation 12
METAR EGOW 221550Z 25011KT 9999 FEW028 13/09 Q1007 BLU
Observed Flight Rules
Apr-22 @ 15:50 UTC
(2 hours ago)
VFR
Wind Visibility
250° at 11 knots 10,000+ meters
Clouds
  • Few at 2,800' AGL
Temperature Dewpoint
13°C / 55°F 9°C / 48°F
Humidity Altimeter Pressure
77% 29.73" Hg 1007 hPa